Flight Briefing for CPX304

Departure Arrival
Tokyo-Narita International Airport (RJAA)
Click to view FAA NOTAMS
Guam International Airport (PGUM)
Click to view FAA NOTAMS
Departure Time Arrival Time
N/A N/A
Aircraft Distance
B767-300BDSF 1360nm
Departure METAR Arrival METAR
RJAA 230730Z 11008KT 070V140 CAVOK 23/05 Q1007 NOSIG RMK A2976 PGUM 230742Z 20006KT 5SM +RA BR BKN030 OVC037 26/24 A2986 RMK AO2 RAB12 P0016 T02610239
Suggested Route
CUPID Y820 SUNNS Y820 ADKAK G223 DAGDA A337 NOGAK A337 TEGOD G205 GUYES


View recent IFR Routes data
Notes



Charts and Procedures

Charts for RJAA
No chart available
Charts for PGUM
No chart available

Windy.com Weather Map